Shtandart — UAEM — position and weather

sailwx.info

Track history (hours):
 
Tides and Currents Weather Stations Pressure Air Temp Water Temp Dewpoint Dewpoint Depression Visibility Wind Speed Wind Dir Waves Ship Positions

Shtandart

Re-creation of early 1700's Russian naval frigate.

Last reported at 2019-Oct-17 08:24 UTC. Time now 2019-Oct-17 16:18 UTC.
Position N 47°52' W 003°55'.

Length 26 m; draft 3 m.

Type: Sailing vessel. MMSI: 273452840.

Date/timePositionNaut miles runAvg speedWind from/ knotsBaromVisibWave heightAir tempDewpointWater temp
2019-Oct-17 08:24N 47°52' W 003°55'5 4.9
2019-Oct-17 07:20N 47°47' W 003°59'2 4.7
2019-Oct-17 06:58N 47°46' W 004°01'10 4.2
2019-Oct-17 04:31N 47°42' W 004°15'1 4.6
2019-Oct-17 04:22N 47°42' W 004°16'2 4.4
2019-Oct-17 03:57N 47°42' W 004°19'2 4.4
2019-Oct-17 03:30N 47°43' W 004°22'2 4.1
2019-Oct-17 03:00N 47°44' W 004°24'3 5.2
2019-Oct-17 02:30N 47°47' W 004°25'2 4.7
2019-Oct-17 02:00N 47°49' W 004°26'2 3.5
2019-Oct-17 01:30N 47°51' W 004°27'2 4.2
2019-Oct-17 01:00N 47°52' W 004°29'1 2.6
2019-Oct-17 00:31N 47°52' W 004°31'1 2.4
2019-Oct-17 00:00N 47°53' W 004°33'2 3.1
2019-Oct-16 23:30N 47°53' W 004°35'0 0.9
2019-Oct-16 23:00N 47°53' W 004°36'1 1.4
2019-Oct-16 22:30N 47°54' W 004°36'1 1.5
2019-Oct-16 22:00N 47°54' W 004°37'1 2.3
2019-Oct-16 21:30N 47°55' W 004°39'1 2.4
2019-Oct-16 21:00N 47°56' W 004°40'2 5.0
2019-Oct-16 20:30N 47°58' W 004°42'4 7.1
2019-Oct-16 20:00N 48°01' W 004°45'4 8.4
2019-Oct-16 19:31N 48°05' W 004°46'4 7.0
2019-Oct-16 19:00N 48°08' W 004°47'4 7.8
2019-Oct-16 18:30N 48°12' W 004°47'4 7.1
2019-Oct-16 18:00N 48°16' W 004°47'4 7.2
2019-Oct-16 17:30N 48°19' W 004°48'3 7.0
2019-Oct-16 17:00N 48°23' W 004°49'3 6.2
2019-Oct-16 16:31N 48°26' W 004°50'4 7.0
2019-Oct-16 16:00N 48°29' W 004°50'3 5.9
2019-Oct-16 15:30N 48°32' W 004°50'3 5.3
2019-Oct-16 15:00N 48°34' W 004°48'2 4.6
2019-Oct-16 14:30N 48°37' W 004°46'2 4.3
2019-Oct-16 14:00N 48°38' W 004°43'3 6.1
2019-Oct-16 13:30N 48°39' W 004°39'3 6.6
2019-Oct-16 12:59N 48°41' W 004°35'4 7.5
2019-Oct-16 12:25N 48°42' W 004°28'4 8.3
2019-Oct-16 11:59N 48°43' W 004°23'7 8.9
2019-Oct-16 11:15N 48°44' W 004°14'50 5.1
2019-Oct-16 01:29N 48°54' W 002°59'2 4.2
2019-Oct-16 01:00N 48°52' W 002°58'2 5.0
2019-Oct-16 00:30N 48°50' W 002°56'3 5.4
2019-Oct-16 00:00N 48°48' W 002°53'3 6.0
2019-Oct-15 23:29N 48°45' W 002°51'  
2019-Oct-13 16:16N 49°44' W 002°00'2 4.8
2019-Oct-13 15:55N 49°45' W 001°58'2 5.8
2019-Oct-13 15:30N 49°46' W 001°55'3 6.8
2019-Oct-13 15:00N 49°48' W 001°50'3 6.4
2019-Oct-13 14:30N 49°48' W 001°45'4 7.4
2019-Oct-13 14:01N 49°47' W 001°40'4 7.7
2019-Oct-13 13:30N 49°47' W 001°34'4 7.2
2019-Oct-13 13:01N 49°46' W 001°28'3 6.7
2019-Oct-13 12:30N 49°48' W 001°24'4 8.3
2019-Oct-13 12:00N 49°48' W 001°17'3 6.0
2019-Oct-13 11:30N 49°47' W 001°12'3 5.5
2019-Oct-13 11:01N 49°46' W 001°09'3 5.1
2019-Oct-13 10:31N 49°44' W 001°06'2 4.0
2019-Oct-13 10:01N 49°44' W 001°03'3 5.2
2019-Oct-13 09:30N 49°44' W 000°59'3 5.6
2019-Oct-13 09:00N 49°44' W 000°54'3 5.3
2019-Oct-13 08:30N 49°44' W 000°50'3 5.0
2019-Oct-13 08:00N 49°45' W 000°46'3 5.0
2019-Oct-13 07:31N 49°45' W 000°43'2 4.7
2019-Oct-13 07:01N 49°45' W 000°39'2 3.2
2019-Oct-13 06:30N 49°46' W 000°37'2 3.4
2019-Oct-13 06:00N 49°46' W 000°34'2 3.4
2019-Oct-13 05:31N 49°46' W 000°31'2 4.5
2019-Oct-13 05:01N 49°46' W 000°28'4 7.0
2019-Oct-13 04:30N 49°47' W 000°23'4 7.9
2019-Oct-13 04:00N 49°48' W 000°17'4 7.6
2019-Oct-13 03:31N 49°49' W 000°11'4 7.9
2019-Oct-13 03:00N 49°50' W 000°05'4 8.1
2019-Oct-13 02:30N 49°50' E 000°01'4 8.2
2019-Oct-13 02:00N 49°51' E 000°07'4 8.3
2019-Oct-13 01:30N 49°52' E 000°14'76 5.7
2019-Oct-12 12:02N 50°50' E 001°31'1 4.2
2019-Oct-12 11:50N 50°51' E 001°32'1 3.9
2019-Oct-12 11:29N 50°52' E 001°33'11 4.1
2019-Oct-12 08:55N 50°58' E 001°46'3 6.3
2019-Oct-12 08:25N 50°60' E 001°50'8 7.9
2019-Oct-12 07:24N 51°02' E 002°02'4 8.2
2019-Oct-12 06:58N 51°03' E 002°08'5 8.4
2019-Oct-12 06:21N 51°04' E 002°16'4 8.5
2019-Oct-12 05:51N 51°04' E 002°23'3 8.6
2019-Oct-12 05:29N 51°05' E 002°28'4 7.9
2019-Oct-12 04:59N 51°08' E 002°32'4 8.1
2019-Oct-12 04:30N 51°10' E 002°37'4 7.5
2019-Oct-12 03:56N 51°11' E 002°44'3 6.9
2019-Oct-12 03:31N 51°12' E 002°48'3 6.4
2019-Oct-12 03:00N 51°14' E 002°53'2 3.7
2019-Oct-12 02:31N 51°14' E 002°55'0 0.1
2019-Oct-12 01:58N 51°14' E 002°55'0 0.0
2019-Oct-12 01:28N 51°14' E 002°55'0 0.0
2019-Oct-12 00:58N 51°14' E 002°55'0 0.0
2019-Oct-12 00:19N 51°14' E 002°55'0 0.0
2019-Oct-11 23:55N 51°14' E 002°55'0 0.0
2019-Oct-11 23:19N 51°14' E 002°55'0 0.0
2019-Oct-11 22:55N 51°14' E 002°55'0 0.0
2019-Oct-11 22:25N 51°14' E 002°55'0 0.0
2019-Oct-11 21:58N 51°14' E 002°55'0 0.0
2019-Oct-11 21:25N 51°14' E 002°55'0 0.0
2019-Oct-11 20:58N 51°14' E 002°55'0 0.0
2019-Oct-11 20:28N 51°14' E 002°55'0 0.0
2019-Oct-11 19:58N 51°14' E 002°55'0 0.0
2019-Oct-11 19:28N 51°14' E 002°55'0 0.0
2019-Oct-11 18:49N 51°14' E 002°55'0 0.0
2019-Oct-11 18:28N 51°14' E 002°55'0 0.0
2019-Oct-11 17:58N 51°14' E 002°55'0 0.0
2019-Oct-11 17:28N 51°14' E 002°55'0 0.0
2019-Oct-11 16:52N 51°14' E 002°55'0 0.0
2019-Oct-11 16:28N 51°14' E 002°55'0 0.0
2019-Oct-11 15:58N 51°14' E 002°55'0 0.0
2019-Oct-11 15:25N 51°14' E 002°55'0 0.0
2019-Oct-11 14:58N 51°14' E 002°55'0 0.0
2019-Oct-11 14:28N 51°14' E 002°55'0 0.0
2019-Oct-11 13:58N 51°14' E 002°55'0 0.0
2019-Oct-11 13:28N 51°14' E 002°55'0 0.0
2019-Oct-11 12:58N 51°14' E 002°55'0 0.0
2019-Oct-11 12:28N 51°14' E 002°55'0 0.0
2019-Oct-11 11:58N 51°14' E 002°55'0 0.0
2019-Oct-11 11:28N 51°14' E 002°55'0 0.0
2019-Oct-11 10:58N 51°14' E 002°55'0 0.0
2019-Oct-11 10:28N 51°14' E 002°55'0 0.0
2019-Oct-11 09:58N 51°14' E 002°55'0 0.0
2019-Oct-11 09:28N 51°14' E 002°55'0 0.0
2019-Oct-11 08:58N 51°14' E 002°55'0 0.0
2019-Oct-11 08:28N 51°14' E 002°55'0 0.0
2019-Oct-11 07:52N 51°14' E 002°55'0 0.0
2019-Oct-11 07:28N 51°14' E 002°55'0 0.0
2019-Oct-11 06:58N 51°14' E 002°55'0 0.0
2019-Oct-11 06:28N 51°14' E 002°55'0 0.0
2019-Oct-11 05:55N 51°14' E 002°55'0 0.0
2019-Oct-11 05:19N 51°14' E 002°55'0 0.0
2019-Oct-11 04:46N 51°14' E 002°55'0 0.0
2019-Oct-11 04:22N 51°14' E 002°55'0 0.0
2019-Oct-11 03:58N 51°14' E 002°55'0 0.0
2019-Oct-11 03:28N 51°14' E 002°55'0 0.0
2019-Oct-11 02:55N 51°14' E 002°55'0 0.0
2019-Oct-11 02:22N 51°14' E 002°55'0 0.0
2019-Oct-11 01:58N 51°14' E 002°55'0 0.0
2019-Oct-11 01:16N 51°14' E 002°55'0 0.0
2019-Oct-11 00:52N 51°14' E 002°55'0 0.0
2019-Oct-11 00:22N 51°14' E 002°55'0 0.0
2019-Oct-10 23:52N 51°14' E 002°55'0 0.0
2019-Oct-10 23:28N 51°14' E 002°55'0 0.0
2019-Oct-10 22:58N 51°14' E 002°55'0 0.0
2019-Oct-10 22:28N 51°14' E 002°55'0 0.0
2019-Oct-10 21:58N 51°14' E 002°55'0 0.0
2019-Oct-10 21:28N 51°14' E 002°55'0 0.0
2019-Oct-10 20:58N 51°14' E 002°55'0 0.0
2019-Oct-10 20:10N 51°14' E 002°55'0 0.0
2019-Oct-10 19:58N 51°14' E 002°55'0 0.0
2019-Oct-10 17:52N 51°14' E 002°55'0 1.0
2019-Oct-10 17:30N 51°14' E 002°55'16 5.7
2019-Oct-10 14:45N 51°22' E 003°17'3 6.7
2019-Oct-10 14:18N 51°23' E 003°22'2 6.8
2019-Oct-10 14:01N 51°24' E 003°25'3 6.2
2019-Oct-10 13:30N 51°25' E 003°29'3 5.2
2019-Oct-10 13:00N 51°25' E 003°33'3 5.1
2019-Oct-10 12:30N 51°25' E 003°38'3 5.4
2019-Oct-10 12:00N 51°24' E 003°42'3 5.5
2019-Oct-10 11:30N 51°22' E 003°45'3 5.5
2019-Oct-10 11:00N 51°21' E 003°49'3 5.2
2019-Oct-10 10:30N 51°21' E 003°53'2 4.5
2019-Oct-10 10:00N 51°23' E 003°56'3 5.2
2019-Oct-10 09:30N 51°25' E 003°58'2 4.8
2019-Oct-10 08:59N 51°27' E 004°01'1 2.2
2019-Oct-10 08:29N 51°28' E 004°01'0 0.4
2019-Oct-10 08:00N 51°28' E 004°00'9 5.6
2019-Oct-10 06:27N 51°36' E 003°55'6 4.9
2019-Oct-10 05:17N 51°37' E 004°03'2 5.6
2019-Oct-10 04:59N 51°38' E 004°05'3 5.3
2019-Oct-10 04:30N 51°40' E 004°09'0 0.6
2019-Oct-10 03:49N 51°40' E 004°10'3 4.5
2019-Oct-10 03:08N 51°38' E 004°14'1 6.7
2019-Oct-10 03:00N 51°39' E 004°16'3 6.2
2019-Oct-10 02:30N 51°40' E 004°20'3 6.2
2019-Oct-10 02:00N 51°41' E 004°24'1 2.2
2019-Oct-10 01:30N 51°42' E 004°26'4 7.2
2019-Oct-10 01:00N 51°42' E 004°32'3 7.0
2019-Oct-10 00:31N 51°43' E 004°37'4 8.2
2019-Oct-10 00:00N 51°47' E 004°38'4 8.0
2019-Oct-09 23:30N 51°50' E 004°33'4 8.5
2019-Oct-09 23:00N 51°50' E 004°26'4 7.8
2019-Oct-09 22:30N 51°52' E 004°20'3 6.4
2019-Oct-09 22:00N 51°54' E 004°17'4 7.6
2019-Oct-09 21:30N 51°56' E 004°12'4 7.2
2019-Oct-09 21:00N 51°58' E 004°07'3 6.3
2019-Oct-09 20:30N 51°60' E 004°03'2 4.3
2019-Oct-09 20:00N 52°01' E 004°05'2 4.4
2019-Oct-09 19:30N 52°03' E 004°07'2 4.1
2019-Oct-09 19:00N 52°05' E 004°09'2 3.8
2019-Oct-09 18:30N 52°06' E 004°11'2 4.8
2019-Oct-09 18:01N 52°08' E 004°13'2 4.5
2019-Oct-09 17:30N 52°10' E 004°15'2 4.7
2019-Oct-09 17:00N 52°12' E 004°17'2 4.1
2019-Oct-09 16:31N 52°14' E 004°19'2 4.1
2019-Oct-09 16:00N 52°16' E 004°21'2 3.4
2019-Oct-09 15:31N 52°17' E 004°22'2 4.3
2019-Oct-09 15:00N 52°19' E 004°24'2 4.2
2019-Oct-09 14:30N 52°21' E 004°25'2 4.1
2019-Oct-09 14:01N 52°23' E 004°27'1 2.8
2019-Oct-09 13:31N 52°24' E 004°28'1 1.7
2019-Oct-09 13:01N 52°25' E 004°29'1 1.7
2019-Oct-09 12:30N 52°25' E 004°30'1 1.9
2019-Oct-09 12:00N 52°26' E 004°31'1 1.4
2019-Oct-09 11:31N 52°27' E 004°31'1 1.4
2019-Oct-09 11:01N 52°27' E 004°31'1 1.7
2019-Oct-09 10:30N 52°28' E 004°33'2 3.5
2019-Oct-09 10:00N 52°28' E 004°36'2 3.1
2019-Oct-09 09:30N 52°28' E 004°38'3 6.9
2019-Oct-09 09:00N 52°26' E 004°43'3 6.7
2019-Oct-09 08:30N 52°25' E 004°48'2 3.1
2019-Oct-09 08:00N 52°25' E 004°51'0 0.0
2019-Oct-09 07:30N 52°25' E 004°51'1 1.8
2019-Oct-09 07:00N 52°26' E 004°50'0 0.4
2019-Oct-09 06:30N 52°26' E 004°50'0 0.0
2019-Oct-09 06:00N 52°26' E 004°50'0 0.0
2019-Oct-09 05:30N 52°26' E 004°50'0 0.0
2019-Oct-09 05:00N 52°26' E 004°50'0 0.0
2019-Oct-09 04:30N 52°26' E 004°50'0 0.0
2019-Oct-09 04:00N 52°26' E 004°50'0 0.0
2019-Oct-09 03:30N 52°26' E 004°50'0 0.0
2019-Oct-09 03:00N 52°26' E 004°50'0 0.0
2019-Oct-09 02:30N 52°26' E 004°50'0 0.0
2019-Oct-09 02:00N 52°26' E 004°50'0 0.0
2019-Oct-09 01:30N 52°26' E 004°50'0 0.0
2019-Oct-09 01:00N 52°26' E 004°50'0 0.0
2019-Oct-09 00:30N 52°26' E 004°50'0 0.0
2019-Oct-09 00:00N 52°26' E 004°50'0 0.0
2019-Oct-08 23:30N 52°26' E 004°50'0 0.0
2019-Oct-08 23:00N 52°26' E 004°50'0 0.0
2019-Oct-08 22:30N 52°26' E 004°50'0 0.0
2019-Oct-08 22:00N 52°26' E 004°50'0 0.0
2019-Oct-08 21:30N 52°26' E 004°50'0 0.0
2019-Oct-08 21:00N 52°26' E 004°50'0 0.0
2019-Oct-08 20:30N 52°26' E 004°50'0 0.0
2019-Oct-08 20:00N 52°26' E 004°50'0 0.0
2019-Oct-08 19:30N 52°26' E 004°50'0 0.0
2019-Oct-08 19:00N 52°26' E 004°50'0 0.0
2019-Oct-08 18:30N 52°26' E 004°50'0 0.0
2019-Oct-08 18:00N 52°26' E 004°50'0 0.0
2019-Oct-08 17:30N 52°26' E 004°50'0 0.0
2019-Oct-08 17:00N 52°26' E 004°50'0 0.0
2019-Oct-08 16:30N 52°26' E 004°50'0 0.0
2019-Oct-08 16:00N 52°26' E 004°50'0 0.0
2019-Oct-08 15:30N 52°26' E 004°50'0 0.0
2019-Oct-08 15:00N 52°26' E 004°50'0 0.0
2019-Oct-08 14:30N 52°26' E 004°50'0 0.0
2019-Oct-08 14:00N 52°26' E 004°50'0 0.0
2019-Oct-08 13:30N 52°26' E 004°50'0 0.0
2019-Oct-08 13:00N 52°26' E 004°50'0 0.0
2019-Oct-08 12:30N 52°26' E 004°50'0 0.0
2019-Oct-08 12:00N 52°26' E 004°50'0 0.0
2019-Oct-08 11:30N 52°26' E 004°50'0 0.0
2019-Oct-08 11:00N 52°26' E 004°50'0 0.0
2019-Oct-08 10:30N 52°26' E 004°50'0 0.0
2019-Oct-08 10:00N 52°26' E 004°50'0 0.0
2019-Oct-08 09:30N 52°26' E 004°50'0 0.0
2019-Oct-08 09:00N 52°26' E 004°50'0 0.0
2019-Oct-08 08:30N 52°26' E 004°50'0 0.0
2019-Oct-08 08:00N 52°26' E 004°50'0 0.0
2019-Oct-08 07:30N 52°26' E 004°50'0 0.0
2019-Oct-08 07:00N 52°26' E 004°50'0 0.0
2019-Oct-08 06:30N 52°26' E 004°50'0 0.0
2019-Oct-08 06:00N 52°26' E 004°50'0 0.0
2019-Oct-08 05:30N 52°26' E 004°50'0 0.0
2019-Oct-08 05:00N 52°26' E 004°50'0 0.0
2019-Oct-08 04:30N 52°26' E 004°50'0 0.0
2019-Oct-08 04:00N 52°26' E 004°50'0 0.0
2019-Oct-08 03:30N 52°26' E 004°50'0 0.0
2019-Oct-08 03:00N 52°26' E 004°50'0 0.0
2019-Oct-08 02:30N 52°26' E 004°50'0 0.0
2019-Oct-08 02:00N 52°26' E 004°50'0 0.0
2019-Oct-08 01:30N 52°26' E 004°50'0 0.0
2019-Oct-08 01:00N 52°26' E 004°50'0 0.0
2019-Oct-08 00:30N 52°26' E 004°50'0 0.0
2019-Oct-08 00:00N 52°26' E 004°50'0 0.0
2019-Oct-07 23:30N 52°26' E 004°50'0 0.0
2019-Oct-07 23:00N 52°26' E 004°50'0 0.0
2019-Oct-07 22:30N 52°26' E 004°50'0 0.0
2019-Oct-07 22:00N 52°26' E 004°50'0 0.0
2019-Oct-07 21:30N 52°26' E 004°50'0 0.0
2019-Oct-07 21:00N 52°26' E 004°50'0 0.0
2019-Oct-07 20:30N 52°26' E 004°50'0 0.0
2019-Oct-07 20:00N 52°26' E 004°50'0 0.0
2019-Oct-07 19:30N 52°26' E 004°50'0 0.0
2019-Oct-07 19:00N 52°26' E 004°50'0 0.0
2019-Oct-07 18:30N 52°26' E 004°50'0 0.0
2019-Oct-07 18:00N 52°26' E 004°50'0 0.3
2019-Oct-07 17:30N 52°26' E 004°50'0 0.0
2019-Oct-07 17:00N 52°26' E 004°50'0 0.0
2019-Oct-07 16:30N 52°26' E 004°50'0 0.0
2019-Oct-07 16:00N 52°26' E 004°50'0 0.0
2019-Oct-07 15:30N 52°26' E 004°50'0 0.0
2019-Oct-07 15:00N 52°26' E 004°50'0 0.0
2019-Oct-07 14:30N 52°26' E 004°50'0 0.0
2019-Oct-07 14:00N 52°26' E 004°50'0 0.0
2019-Oct-07 13:30N 52°26' E 004°50'0 0.0
2019-Oct-07 13:00N 52°26' E 004°50'0 0.0
2019-Oct-07 12:30N 52°26' E 004°50'0 0.0
2019-Oct-07 12:00N 52°26' E 004°50'0 0.0
2019-Oct-07 11:30N 52°26' E 004°50'0 0.0
2019-Oct-07 11:00N 52°26' E 004°50'0 0.0
2019-Oct-07 10:30N 52°26' E 004°50'0 0.0
2019-Oct-07 10:00N 52°26' E 004°50'0 0.0
2019-Oct-07 09:30N 52°26' E 004°50'0 0.0
2019-Oct-07 09:00N 52°26' E 004°50'0 0.0
2019-Oct-07 08:30N 52°26' E 004°50'  
Track history (hours):
 
Tides and Currents Weather Stations Pressure Air Temp Water Temp Dewpoint Dewpoint Depression Visibility Wind Speed Wind Dir Waves Ship Positions

Shtandart

Re-creation of early 1700's Russian naval frigate.

Last reported at 2019-Oct-17 08:24 UTC. Time now 2019-Oct-17 16:18 UTC.
Position N 47°52' W 003°55'.

Length 26 m; draft 3 m.

Type: Sailing vessel. MMSI: 273452840.

Date/timePositionNaut miles runAvg speedWind from/ knotsBaromVisibWave heightAir tempDewpointWater temp
2019-Oct-17 08:24N 47°52' W 003°55'5 4.9
2019-Oct-17 07:20N 47°47' W 003°59'2 4.7
2019-Oct-17 06:58N 47°46' W 004°01'10 4.2
2019-Oct-17 04:31N 47°42' W 004°15'1 4.6
2019-Oct-17 04:22N 47°42' W 004°16'2 4.4
2019-Oct-17 03:57N 47°42' W 004°19'2 4.4
2019-Oct-17 03:30N 47°43' W 004°22'2 4.1
2019-Oct-17 03:00N 47°44' W 004°24'3 5.2
2019-Oct-17 02:30N 47°47' W 004°25'2 4.7
2019-Oct-17 02:00N 47°49' W 004°26'2 3.5
2019-Oct-17 01:30N 47°51' W 004°27'2 4.2
2019-Oct-17 01:00N 47°52' W 004°29'1 2.6
2019-Oct-17 00:31N 47°52' W 004°31'1 2.4
2019-Oct-17 00:00N 47°53' W 004°33'2 3.1
2019-Oct-16 23:30N 47°53' W 004°35'0 0.9
2019-Oct-16 23:00N 47°53' W 004°36'1 1.4
2019-Oct-16 22:30N 47°54' W 004°36'1 1.5
2019-Oct-16 22:00N 47°54' W 004°37'1 2.3
2019-Oct-16 21:30N 47°55' W 004°39'1 2.4
2019-Oct-16 21:00N 47°56' W 004°40'2 5.0
2019-Oct-16 20:30N 47°58' W 004°42'4 7.1
2019-Oct-16 20:00N 48°01' W 004°45'4 8.4
2019-Oct-16 19:31N 48°05' W 004°46'4 7.0
2019-Oct-16 19:00N 48°08' W 004°47'4 7.8
2019-Oct-16 18:30N 48°12' W 004°47'4 7.1
2019-Oct-16 18:00N 48°16' W 004°47'4 7.2
2019-Oct-16 17:30N 48°19' W 004°48'3 7.0
2019-Oct-16 17:00N 48°23' W 004°49'3 6.2
2019-Oct-16 16:31N 48°26' W 004°50'4 7.0
2019-Oct-16 16:00N 48°29' W 004°50'3 5.9
2019-Oct-16 15:30N 48°32' W 004°50'3 5.3
2019-Oct-16 15:00N 48°34' W 004°48'2 4.6
2019-Oct-16 14:30N 48°37' W 004°46'2 4.3
2019-Oct-16 14:00N 48°38' W 004°43'3 6.1
2019-Oct-16 13:30N 48°39' W 004°39'3 6.6
2019-Oct-16 12:59N 48°41' W 004°35'4 7.5
2019-Oct-16 12:25N 48°42' W 004°28'4 8.3
2019-Oct-16 11:59N 48°43' W 004°23'7 8.9
2019-Oct-16 11:15N 48°44' W 004°14'50 5.1
2019-Oct-16 01:29N 48°54' W 002°59'2 4.2
2019-Oct-16 01:00N 48°52' W 002°58'2 5.0
2019-Oct-16 00:30N 48°50' W 002°56'3 5.4
2019-Oct-16 00:00N 48°48' W 002°53'3 6.0
2019-Oct-15 23:29N 48°45' W 002°51'  
2019-Oct-13 16:16N 49°44' W 002°00'2 4.8
2019-Oct-13 15:55N 49°45' W 001°58'2 5.8
2019-Oct-13 15:30N 49°46' W 001°55'3 6.8
2019-Oct-13 15:00N 49°48' W 001°50'3 6.4
2019-Oct-13 14:30N 49°48' W 001°45'4 7.4
2019-Oct-13 14:01N 49°47' W 001°40'4 7.7
2019-Oct-13 13:30N 49°47' W 001°34'4 7.2
2019-Oct-13 13:01N 49°46' W 001°28'3 6.7
2019-Oct-13 12:30N 49°48' W 001°24'4 8.3
2019-Oct-13 12:00N 49°48' W 001°17'3 6.0
2019-Oct-13 11:30N 49°47' W 001°12'3 5.5
2019-Oct-13 11:01N 49°46' W 001°09'3 5.1
2019-Oct-13 10:31N 49°44' W 001°06'2 4.0
2019-Oct-13 10:01N 49°44' W 001°03'3 5.2
2019-Oct-13 09:30N 49°44' W 000°59'3 5.6
2019-Oct-13 09:00N 49°44' W 000°54'3 5.3
2019-Oct-13 08:30N 49°44' W 000°50'3 5.0
2019-Oct-13 08:00N 49°45' W 000°46'3 5.0
2019-Oct-13 07:31N 49°45' W 000°43'2 4.7
2019-Oct-13 07:01N 49°45' W 000°39'2 3.2
2019-Oct-13 06:30N 49°46' W 000°37'2 3.4
2019-Oct-13 06:00N 49°46' W 000°34'2 3.4
2019-Oct-13 05:31N 49°46' W 000°31'2 4.5
2019-Oct-13 05:01N 49°46' W 000°28'4 7.0
2019-Oct-13 04:30N 49°47' W 000°23'4 7.9
2019-Oct-13 04:00N 49°48' W 000°17'4 7.6
2019-Oct-13 03:31N 49°49' W 000°11'4 7.9
2019-Oct-13 03:00N 49°50' W 000°05'4 8.1
2019-Oct-13 02:30N 49°50' E 000°01'4 8.2
2019-Oct-13 02:00N 49°51' E 000°07'4 8.3
2019-Oct-13 01:30N 49°52' E 000°14'76 5.7
2019-Oct-12 12:02N 50°50' E 001°31'1 4.2
2019-Oct-12 11:50N 50°51' E 001°32'1 3.9
2019-Oct-12 11:29N 50°52' E 001°33'11 4.1
2019-Oct-12 08:55N 50°58' E 001°46'3 6.3
2019-Oct-12 08:25N 50°60' E 001°50'8 7.9
2019-Oct-12 07:24N 51°02' E 002°02'4 8.2
2019-Oct-12 06:58N 51°03' E 002°08'5 8.4
2019-Oct-12 06:21N 51°04' E 002°16'4 8.5
2019-Oct-12 05:51N 51°04' E 002°23'3 8.6
2019-Oct-12 05:29N 51°05' E 002°28'4 7.9
2019-Oct-12 04:59N 51°08' E 002°32'4 8.1
2019-Oct-12 04:30N 51°10' E 002°37'4 7.5
2019-Oct-12 03:56N 51°11' E 002°44'3 6.9
2019-Oct-12 03:31N 51°12' E 002°48'3 6.4
2019-Oct-12 03:00N 51°14' E 002°53'2 3.7
2019-Oct-12 02:31N 51°14' E 002°55'0 0.1
2019-Oct-12 01:58N 51°14' E 002°55'0 0.0
2019-Oct-12 01:28N 51°14' E 002°55'0 0.0
2019-Oct-12 00:58N 51°14' E 002°55'0 0.0
2019-Oct-12 00:19N 51°14' E 002°55'0 0.0
2019-Oct-11 23:55N 51°14' E 002°55'0 0.0
2019-Oct-11 23:19N 51°14' E 002°55'0 0.0
2019-Oct-11 22:55N 51°14' E 002°55'0 0.0
2019-Oct-11 22:25N 51°14' E 002°55'0 0.0
2019-Oct-11 21:58N 51°14' E 002°55'0 0.0
2019-Oct-11 21:25N 51°14' E 002°55'0 0.0
2019-Oct-11 20:58N 51°14' E 002°55'0 0.0
2019-Oct-11 20:28N 51°14' E 002°55'0 0.0
2019-Oct-11 19:58N 51°14' E 002°55'0 0.0
2019-Oct-11 19:28N 51°14' E 002°55'0 0.0
2019-Oct-11 18:49N 51°14' E 002°55'0 0.0
2019-Oct-11 18:28N 51°14' E 002°55'0 0.0
2019-Oct-11 17:58N 51°14' E 002°55'0 0.0
2019-Oct-11 17:28N 51°14' E 002°55'0 0.0
2019-Oct-11 16:52N 51°14' E 002°55'0 0.0
2019-Oct-11 16:28N 51°14' E 002°55'0 0.0
2019-Oct-11 15:58N 51°14' E 002°55'0 0.0
2019-Oct-11 15:25N 51°14' E 002°55'0 0.0
2019-Oct-11 14:58N 51°14' E 002°55'0 0.0
2019-Oct-11 14:28N 51°14' E 002°55'0 0.0
2019-Oct-11 13:58N 51°14' E 002°55'0 0.0
2019-Oct-11 13:28N 51°14' E 002°55'0 0.0
2019-Oct-11 12:58N 51°14' E 002°55'0 0.0
2019-Oct-11 12:28N 51°14' E 002°55'0 0.0
2019-Oct-11 11:58N 51°14' E 002°55'0 0.0
2019-Oct-11 11:28N 51°14' E 002°55'0 0.0
2019-Oct-11 10:58N 51°14' E 002°55'0 0.0
2019-Oct-11 10:28N 51°14' E 002°55'0 0.0
2019-Oct-11 09:58N 51°14' E 002°55'0 0.0
2019-Oct-11 09:28N 51°14' E 002°55'0 0.0
2019-Oct-11 08:58N 51°14' E 002°55'0 0.0
2019-Oct-11 08:28N 51°14' E 002°55'0 0.0
2019-Oct-11 07:52N 51°14' E 002°55'0 0.0
2019-Oct-11 07:28N 51°14' E 002°55'0 0.0
2019-Oct-11 06:58N 51°14' E 002°55'0 0.0
2019-Oct-11 06:28N 51°14' E 002°55'0 0.0
2019-Oct-11 05:55N 51°14' E 002°55'0 0.0
2019-Oct-11 05:19N 51°14' E 002°55'0 0.0
2019-Oct-11 04:46N 51°14' E 002°55'0 0.0
2019-Oct-11 04:22N 51°14' E 002°55'0 0.0
2019-Oct-11 03:58N 51°14' E 002°55'0 0.0
2019-Oct-11 03:28N 51°14' E 002°55'0 0.0
2019-Oct-11 02:55N 51°14' E 002°55'0 0.0
2019-Oct-11 02:22N 51°14' E 002°55'0 0.0
2019-Oct-11 01:58N 51°14' E 002°55'0 0.0
2019-Oct-11 01:16N 51°14' E 002°55'0 0.0
2019-Oct-11 00:52N 51°14' E 002°55'0 0.0
2019-Oct-11 00:22N 51°14' E 002°55'0 0.0
2019-Oct-10 23:52N 51°14' E 002°55'0 0.0
2019-Oct-10 23:28N 51°14' E 002°55'0 0.0
2019-Oct-10 22:58N 51°14' E 002°55'0 0.0
2019-Oct-10 22:28N 51°14' E 002°55'0 0.0
2019-Oct-10 21:58N 51°14' E 002°55'0 0.0
2019-Oct-10 21:28N 51°14' E 002°55'0 0.0
2019-Oct-10 20:58N 51°14' E 002°55'0 0.0
2019-Oct-10 20:10N 51°14' E 002°55'0 0.0
2019-Oct-10 19:58N 51°14' E 002°55'0 0.0
2019-Oct-10 17:52N 51°14' E 002°55'0 1.0
2019-Oct-10 17:30N 51°14' E 002°55'16 5.7
2019-Oct-10 14:45N 51°22' E 003°17'3 6.7
2019-Oct-10 14:18N 51°23' E 003°22'2 6.8
2019-Oct-10 14:01N 51°24' E 003°25'3 6.2
2019-Oct-10 13:30N 51°25' E 003°29'3 5.2
2019-Oct-10 13:00N 51°25' E 003°33'3 5.1
2019-Oct-10 12:30N 51°25' E 003°38'3 5.4
2019-Oct-10 12:00N 51°24' E 003°42'3 5.5
2019-Oct-10 11:30N 51°22' E 003°45'3 5.5
2019-Oct-10 11:00N 51°21' E 003°49'3 5.2
2019-Oct-10 10:30N 51°21' E 003°53'2 4.5
2019-Oct-10 10:00N 51°23' E 003°56'3 5.2
2019-Oct-10 09:30N 51°25' E 003°58'2 4.8
2019-Oct-10 08:59N 51°27' E 004°01'1 2.2
2019-Oct-10 08:29N 51°28' E 004°01'0 0.4
2019-Oct-10 08:00N 51°28' E 004°00'9 5.6
2019-Oct-10 06:27N 51°36' E 003°55'6 4.9
2019-Oct-10 05:17N 51°37' E 004°03'2 5.6
2019-Oct-10 04:59N 51°38' E 004°05'3 5.3
2019-Oct-10 04:30N 51°40' E 004°09'0 0.6
2019-Oct-10 03:49N 51°40' E 004°10'3 4.5
2019-Oct-10 03:08N 51°38' E 004°14'1 6.7
2019-Oct-10 03:00N 51°39' E 004°16'3 6.2
2019-Oct-10 02:30N 51°40' E 004°20'3 6.2
2019-Oct-10 02:00N 51°41' E 004°24'1 2.2
2019-Oct-10 01:30N 51°42' E 004°26'4 7.2
2019-Oct-10 01:00N 51°42' E 004°32'3 7.0
2019-Oct-10 00:31N 51°43' E 004°37'4 8.2
2019-Oct-10 00:00N 51°47' E 004°38'4 8.0
2019-Oct-09 23:30N 51°50' E 004°33'4 8.5
2019-Oct-09 23:00N 51°50' E 004°26'4 7.8
2019-Oct-09 22:30N 51°52' E 004°20'3 6.4
2019-Oct-09 22:00N 51°54' E 004°17'4 7.6
2019-Oct-09 21:30N 51°56' E 004°12'4 7.2
2019-Oct-09 21:00N 51°58' E 004°07'3 6.3
2019-Oct-09 20:30N 51°60' E 004°03'2 4.3
2019-Oct-09 20:00N 52°01' E 004°05'2 4.4
2019-Oct-09 19:30N 52°03' E 004°07'2 4.1
2019-Oct-09 19:00N 52°05' E 004°09'2 3.8
2019-Oct-09 18:30N 52°06' E 004°11'2 4.8
2019-Oct-09 18:01N 52°08' E 004°13'2 4.5
2019-Oct-09 17:30N 52°10' E 004°15'2 4.7
2019-Oct-09 17:00N 52°12' E 004°17'2 4.1
2019-Oct-09 16:31N 52°14' E 004°19'2 4.1
2019-Oct-09 16:00N 52°16' E 004°21'2 3.4
2019-Oct-09 15:31N 52°17' E 004°22'2 4.3
2019-Oct-09 15:00N 52°19' E 004°24'2 4.2
2019-Oct-09 14:30N 52°21' E 004°25'2 4.1
2019-Oct-09 14:01N 52°23' E 004°27'1 2.8
2019-Oct-09 13:31N 52°24' E 004°28'1 1.7
2019-Oct-09 13:01N 52°25' E 004°29'1 1.7
2019-Oct-09 12:30N 52°25' E 004°30'1 1.9
2019-Oct-09 12:00N 52°26' E 004°31'1 1.4
2019-Oct-09 11:31N 52°27' E 004°31'1 1.4
2019-Oct-09 11:01N 52°27' E 004°31'1 1.7
2019-Oct-09 10:30N 52°28' E 004°33'2 3.5
2019-Oct-09 10:00N 52°28' E 004°36'2 3.1
2019-Oct-09 09:30N 52°28' E 004°38'3 6.9
2019-Oct-09 09:00N 52°26' E 004°43'3 6.7
2019-Oct-09 08:30N 52°25' E 004°48'2 3.1
2019-Oct-09 08:00N 52°25' E 004°51'0 0.0
2019-Oct-09 07:30N 52°25' E 004°51'1 1.8
2019-Oct-09 07:00N 52°26' E 004°50'0 0.4
2019-Oct-09 06:30N 52°26' E 004°50'0 0.0
2019-Oct-09 06:00N 52°26' E 004°50'0 0.0
2019-Oct-09 05:30N 52°26' E 004°50'0 0.0
2019-Oct-09 05:00N 52°26' E 004°50'0 0.0
2019-Oct-09 04:30N 52°26' E 004°50'0 0.0
2019-Oct-09 04:00N 52°26' E 004°50'0 0.0
2019-Oct-09 03:30N 52°26' E 004°50'0 0.0
2019-Oct-09 03:00N 52°26' E 004°50'0 0.0
2019-Oct-09 02:30N 52°26' E 004°50'0 0.0
2019-Oct-09 02:00N 52°26' E 004°50'0 0.0
2019-Oct-09 01:30N 52°26' E 004°50'0 0.0
2019-Oct-09 01:00N 52°26' E 004°50'0 0.0
2019-Oct-09 00:30N 52°26' E 004°50'0 0.0
2019-Oct-09 00:00N 52°26' E 004°50'0 0.0
2019-Oct-08 23:30N 52°26' E 004°50'0 0.0
2019-Oct-08 23:00N 52°26' E 004°50'0 0.0
2019-Oct-08 22:30N 52°26' E 004°50'0 0.0
2019-Oct-08 22:00N 52°26' E 004°50'0 0.0
2019-Oct-08 21:30N 52°26' E 004°50'0 0.0
2019-Oct-08 21:00N 52°26' E 004°50'0 0.0
2019-Oct-08 20:30N 52°26' E 004°50'0 0.0
2019-Oct-08 20:00N 52°26' E 004°50'0 0.0
2019-Oct-08 19:30N 52°26' E 004°50'0 0.0
2019-Oct-08 19:00N 52°26' E 004°50'0 0.0
2019-Oct-08 18:30N 52°26' E 004°50'0 0.0
2019-Oct-08 18:00N 52°26' E 004°50'0 0.0
2019-Oct-08 17:30N 52°26' E 004°50'0 0.0
2019-Oct-08 17:00N 52°26' E 004°50'0 0.0
2019-Oct-08 16:30N 52°26' E 004°50'0 0.0
2019-Oct-08 16:00N 52°26' E 004°50'0 0.0
2019-Oct-08 15:30N 52°26' E 004°50'0 0.0
2019-Oct-08 15:00N 52°26' E 004°50'0 0.0
2019-Oct-08 14:30N 52°26' E 004°50'0 0.0
2019-Oct-08 14:00N 52°26' E 004°50'0 0.0
2019-Oct-08 13:30N 52°26' E 004°50'0 0.0
2019-Oct-08 13:00N 52°26' E 004°50'0 0.0
2019-Oct-08 12:30N 52°26' E 004°50'0 0.0
2019-Oct-08 12:00N 52°26' E 004°50'0 0.0
2019-Oct-08 11:30N 52°26' E 004°50'0 0.0
2019-Oct-08 11:00N 52°26' E 004°50'0 0.0
2019-Oct-08 10:30N 52°26' E 004°50'0 0.0
2019-Oct-08 10:00N 52°26' E 004°50'0 0.0
2019-Oct-08 09:30N 52°26' E 004°50'0 0.0
2019-Oct-08 09:00N 52°26' E 004°50'0 0.0
2019-Oct-08 08:30N 52°26' E 004°50'0 0.0
2019-Oct-08 08:00N 52°26' E 004°50'0 0.0
2019-Oct-08 07:30N 52°26' E 004°50'0 0.0
2019-Oct-08 07:00N 52°26' E 004°50'0 0.0
2019-Oct-08 06:30N 52°26' E 004°50'0 0.0
2019-Oct-08 06:00N 52°26' E 004°50'0 0.0
2019-Oct-08 05:30N 52°26' E 004°50'0 0.0
2019-Oct-08 05:00N 52°26' E 004°50'0 0.0
2019-Oct-08 04:30N 52°26' E 004°50'0 0.0
2019-Oct-08 04:00N 52°26' E 004°50'0 0.0
2019-Oct-08 03:30N 52°26' E 004°50'0 0.0
2019-Oct-08 03:00N 52°26' E 004°50'0 0.0
2019-Oct-08 02:30N 52°26' E 004°50'0 0.0
2019-Oct-08 02:00N 52°26' E 004°50'0 0.0
2019-Oct-08 01:30N 52°26' E 004°50'0 0.0
2019-Oct-08 01:00N 52°26' E 004°50'0 0.0
2019-Oct-08 00:30N 52°26' E 004°50'0 0.0
2019-Oct-08 00:00N 52°26' E 004°50'0 0.0
2019-Oct-07 23:30N 52°26' E 004°50'0 0.0
2019-Oct-07 23:00N 52°26' E 004°50'0 0.0
2019-Oct-07 22:30N 52°26' E 004°50'0 0.0
2019-Oct-07 22:00N 52°26' E 004°50'0 0.0
2019-Oct-07 21:30N 52°26' E 004°50'0 0.0
2019-Oct-07 21:00N 52°26' E 004°50'0 0.0
2019-Oct-07 20:30N 52°26' E 004°50'0 0.0
2019-Oct-07 20:00N 52°26' E 004°50'0 0.0
2019-Oct-07 19:30N 52°26' E 004°50'0 0.0
2019-Oct-07 19:00N 52°26' E 004°50'0 0.0
2019-Oct-07 18:30N 52°26' E 004°50'0 0.0
2019-Oct-07 18:00N 52°26' E 004°50'0 0.3
2019-Oct-07 17:30N 52°26' E 004°50'0 0.0
2019-Oct-07 17:00N 52°26' E 004°50'0 0.0
2019-Oct-07 16:30N 52°26' E 004°50'0 0.0
2019-Oct-07 16:00N 52°26' E 004°50'0 0.0
2019-Oct-07 15:30N 52°26' E 004°50'0 0.0
2019-Oct-07 15:00N 52°26' E 004°50'0 0.0
2019-Oct-07 14:30N 52°26' E 004°50'0 0.0
2019-Oct-07 14:00N 52°26' E 004°50'0 0.0
2019-Oct-07 13:30N 52°26' E 004°50'0 0.0
2019-Oct-07 13:00N 52°26' E 004°50'0 0.0
2019-Oct-07 12:30N 52°26' E 004°50'0 0.0
2019-Oct-07 12:00N 52°26' E 004°50'0 0.0
2019-Oct-07 11:30N 52°26' E 004°50'0 0.0
2019-Oct-07 11:00N 52°26' E 004°50'0 0.0
2019-Oct-07 10:30N 52°26' E 004°50'0 0.0
2019-Oct-07 10:00N 52°26' E 004°50'0 0.0
2019-Oct-07 09:30N 52°26' E 004°50'0 0.0
2019-Oct-07 09:00N 52°26' E 004°50'0 0.0
2019-Oct-07 08:30N 52°26' E 004°50'  

Dump ship's entire track history